sensor_id;sensor_type;location;lat;lon;timestamp;P1;P2;P0
80555;PMS5003;69889;55.040;73.076;2023-07-22T00:02:18;9.25;8.50;5.25
80555;PMS5003;69889;55.040;73.076;2023-07-22T00:04:45;8.25;8.00;5.50
80555;PMS5003;69889;55.040;73.076;2023-07-22T00:07:12;11.00;10.00;6.00
80555;PMS5003;69889;55.040;73.076;2023-07-22T00:09:38;10.75;10.25;7.00
80555;PMS5003;69889;55.040;73.076;2023-07-22T00:12:05;12.00;11.00;7.00
80555;PMS5003;69889;55.040;73.076;2023-07-22T00:14:32;10.00;10.00;7.00
80555;PMS5003;69889;55.040;73.076;2023-07-22T00:16:58;10.00;9.00;6.00
80555;PMS5003;69889;55.040;73.076;2023-07-22T00:19:25;12.00;10.75;7.00
80555;PMS5003;69889;55.040;73.076;2023-07-22T00:21:53;11.00;10.00;6.25
80555;PMS5003;69889;55.040;73.076;2023-07-22T00:24:20;10.00;9.00;5.75
80555;PMS5003;69889;55.040;73.076;2023-07-22T00:26:48;10.75;9.00;6.00
80555;PMS5003;69889;55.040;73.076;2023-07-22T00:29:16;12.00;11.00;7.00
80555;PMS5003;69889;55.040;73.076;2023-07-22T00:31:43;10.00;9.50;6.00
80555;PMS5003;69889;55.040;73.076;2023-07-22T00:34:10;11.00;10.00;7.00
80555;PMS5003;69889;55.040;73.076;2023-07-22T00:36:36;11.00;10.00;7.00
80555;PMS5003;69889;55.040;73.076;2023-07-22T00:39:04;9.75;8.50;5.75
80555;PMS5003;69889;55.040;73.076;2023-07-22T00:41:31;9.75;8.25;6.00
80555;PMS5003;69889;55.040;73.076;2023-07-22T00:43:58;9.00;9.00;6.25
80555;PMS5003;69889;55.040;73.076;2023-07-22T00:46:24;9.00;8.00;5.00
80555;PMS5003;69889;55.040;73.076;2023-07-22T00:48:51;8.50;8.00;5.25
80555;PMS5003;69889;55.040;73.076;2023-07-22T00:51:18;8.50;8.00;5.00
80555;PMS5003;69889;55.040;73.076;2023-07-22T00:53:46;10.00;9.00;6.00
80555;PMS5003;69889;55.040;73.076;2023-07-22T00:56:13;9.25;9.00;6.00
80555;PMS5003;69889;55.040;73.076;2023-07-22T00:58:39;8.00;7.00;5.00
80555;PMS5003;69889;55.040;73.076;2023-07-22T01:01:06;9.75;9.00;6.00
80555;PMS5003;69889;55.040;73.076;2023-07-22T01:03:33;8.00;8.00;5.00
80555;PMS5003;69889;55.040;73.076;2023-07-22T01:05:59;12.00;11.00;6.00
80555;PMS5003;69889;55.040;73.076;2023-07-22T01:08:27;9.00;9.00;6.00
80555;PMS5003;69889;55.040;73.076;2023-07-22T01:10:53;10.00;10.00;7.00
80555;PMS5003;69889;55.040;73.076;2023-07-22T01:13:20;10.75;9.50;6.50
80555;PMS5003;69889;55.040;73.076;2023-07-22T01:15:47;11.25;10.25;7.25
80555;PMS5003;69889;55.040;73.076;2023-07-22T01:18:14;11.00;10.00;7.00
80555;PMS5003;69889;55.040;73.076;2023-07-22T01:20:41;11.00;10.00;7.00
80555;PMS5003;69889;55.040;73.076;2023-07-22T01:23:09;10.75;9.75;6.25
80555;PMS5003;69889;55.040;73.076;2023-07-22T01:25:35;10.00;10.00;6.00
80555;PMS5003;69889;55.040;73.076;2023-07-22T01:28:02;12.75;12.00;8.00
80555;PMS5003;69889;55.040;73.076;2023-07-22T01:30:30;10.75;10.00;6.00
80555;PMS5003;69889;55.040;73.076;2023-07-22T01:32:56;11.00;10.00;7.00
80555;PMS5003;69889;55.040;73.076;2023-07-22T01:35:23;13.00;11.00;7.25
80555;PMS5003;69889;55.040;73.076;2023-07-22T01:37:50;11.50;11.00;7.00
80555;PMS5003;69889;55.040;73.076;2023-07-22T01:40:16;10.00;9.50;6.75
80555;PMS5003;69889;55.040;73.076;2023-07-22T01:42:44;11.50;10.75;8.00
80555;PMS5003;69889;55.040;73.076;2023-07-22T01:45:10;12.00;10.00;7.00
80555;PMS5003;69889;55.040;73.076;2023-07-22T01:47:38;10.75;10.00;6.00
80555;PMS5003;69889;55.040;73.076;2023-07-22T01:50:05;11.00;10.00;7.00
80555;PMS5003;69889;55.040;73.076;2023-07-22T01:52:32;11.00;10.00;7.00
80555;PMS5003;69889;55.040;73.076;2023-07-22T01:54:59;10.00;10.00;6.00
80555;PMS5003;69889;55.040;73.076;2023-07-22T01:57:25;10.00;9.00;6.00
80555;PMS5003;69889;55.040;73.076;2023-07-22T01:59:52;11.00;10.00;6.00
80555;PMS5003;69889;55.040;73.076;2023-07-22T02:02:19;10.00;9.00;5.25
80555;PMS5003;69889;55.040;73.076;2023-07-22T02:04:46;9.75;8.25;6.00
80555;PMS5003;69889;55.040;73.076;2023-07-22T02:07:12;12.00;11.00;7.00
80555;PMS5003;69889;55.040;73.076;2023-07-22T02:09:40;10.25;10.00;7.00
80555;PMS5003;69889;55.040;73.076;2023-07-22T02:12:07;9.50;9.00;6.00
80555;PMS5003;69889;55.040;73.076;2023-07-22T02:14:34;9.00;8.00;6.00
80555;PMS5003;69889;55.040;73.076;2023-07-22T02:17:00;10.00;9.25;7.00
80555;PMS5003;69889;55.040;73.076;2023-07-22T02:19:27;10.00;9.00;6.00
80555;PMS5003;69889;55.040;73.076;2023-07-22T02:21:53;9.50;9.00;6.00
80555;PMS5003;69889;55.040;73.076;2023-07-22T02:24:20;10.00;9.50;6.50
80555;PMS5003;69889;55.040;73.076;2023-07-22T02:26:47;10.25;9.25;6.00
80555;PMS5003;69889;55.040;73.076;2023-07-22T02:29:13;11.00;9.00;6.00
80555;PMS5003;69889;55.040;73.076;2023-07-22T02:31:40;9.25;9.00;6.00
80555;PMS5003;69889;55.040;73.076;2023-07-22T02:34:07;10.00;9.00;6.00
80555;PMS5003;69889;55.040;73.076;2023-07-22T02:36:33;10.00;9.00;6.00
80555;PMS5003;69889;55.040;73.076;2023-07-22T02:39:00;10.00;9.00;6.00
80555;PMS5003;69889;55.040;73.076;2023-07-22T02:41:26;12.00;10.75;6.00
80555;PMS5003;69889;55.040;73.076;2023-07-22T02:43:53;9.25;9.00;6.00
80555;PMS5003;69889;55.040;73.076;2023-07-22T02:46:19;10.00;8.75;6.00
80555;PMS5003;69889;55.040;73.076;2023-07-22T02:48:46;9.00;8.50;6.00
80555;PMS5003;69889;55.040;73.076;2023-07-22T02:51:12;8.00;7.75;5.00
80555;PMS5003;69889;55.040;73.076;2023-07-22T02:53:39;10.00;8.75;5.00
80555;PMS5003;69889;55.040;73.076;2023-07-22T02:56:07;11.00;9.00;7.00
80555;PMS5003;69889;55.040;73.076;2023-07-22T02:58:34;7.75;7.00;5.00
80555;PMS5003;69889;55.040;73.076;2023-07-22T03:01:00;10.00;9.00;5.50
80555;PMS5003;69889;55.040;73.076;2023-07-22T03:03:27;9.00;8.00;5.00
80555;PMS5003;69889;55.040;73.076;2023-07-22T03:05:53;9.00;8.00;5.00
80555;PMS5003;69889;55.040;73.076;2023-07-22T03:08:20;10.00;9.00;6.00
80555;PMS5003;69889;55.040;73.076;2023-07-22T03:10:46;10.00;9.00;5.00
80555;PMS5003;69889;55.040;73.076;2023-07-22T03:13:15;9.00;8.00;6.00
80555;PMS5003;69889;55.040;73.076;2023-07-22T03:15:41;10.00;9.00;6.00
80555;PMS5003;69889;55.040;73.076;2023-07-22T03:18:08;9.00;8.00;6.00
80555;PMS5003;69889;55.040;73.076;2023-07-22T03:20:36;8.00;8.00;5.00
80555;PMS5003;69889;55.040;73.076;2023-07-22T03:23:06;9.00;8.00;6.00
80555;PMS5003;69889;55.040;73.076;2023-07-22T03:25:34;11.00;9.75;6.00
80555;PMS5003;69889;55.040;73.076;2023-07-22T03:28:02;10.00;9.00;6.00
80555;PMS5003;69889;55.040;73.076;2023-07-22T03:30:29;8.75;8.00;6.00
80555;PMS5003;69889;55.040;73.076;2023-07-22T03:32:56;9.00;8.00;5.00
80555;PMS5003;69889;55.040;73.076;2023-07-22T03:35:23;8.00;7.00;5.00
80555;PMS5003;69889;55.040;73.076;2023-07-22T03:37:49;8.00;8.00;6.00
80555;PMS5003;69889;55.040;73.076;2023-07-22T03:40:16;7.00;6.00;4.75
80555;PMS5003;69889;55.040;73.076;2023-07-22T03:42:47;8.00;7.00;5.00
80555;PMS5003;69889;55.040;73.076;2023-07-22T03:45:14;7.75;7.00;5.00
80555;PMS5003;69889;55.040;73.076;2023-07-22T03:47:41;9.00;8.00;5.00
80555;PMS5003;69889;55.040;73.076;2023-07-22T03:50:07;8.00;7.00;6.00
80555;PMS5003;69889;55.040;73.076;2023-07-22T03:52:34;10.00;9.00;6.00
80555;PMS5003;69889;55.040;73.076;2023-07-22T03:55:01;8.00;7.00;5.00
80555;PMS5003;69889;55.040;73.076;2023-07-22T03:57:27;8.00;8.00;5.75
80555;PMS5003;69889;55.040;73.076;2023-07-22T03:59:54;9.00;9.00;6.00
80555;PMS5003;69889;55.040;73.076;2023-07-22T04:02:21;8.00;8.00;5.00
80555;PMS5003;69889;55.040;73.076;2023-07-22T04:04:47;8.25;8.00;6.00
80555;PMS5003;69889;55.040;73.076;2023-07-22T04:07:14;9.00;8.00;6.00
80555;PMS5003;69889;55.040;73.076;2023-07-22T04:09:40;8.00;7.50;5.25
80555;PMS5003;69889;55.040;73.076;2023-07-22T04:12:07;9.00;8.00;5.25
80555;PMS5003;69889;55.040;73.076;2023-07-22T04:14:34;9.00;8.00;5.00
80555;PMS5003;69889;55.040;73.076;2023-07-22T04:17:00;9.00;8.00;5.00
80555;PMS5003;69889;55.040;73.076;2023-07-22T04:19:27;8.00;8.00;6.00
80555;PMS5003;69889;55.040;73.076;2023-07-22T04:21:53;9.00;8.00;5.25
80555;PMS5003;69889;55.040;73.076;2023-07-22T04:24:21;8.50;8.00;6.50
80555;PMS5003;69889;55.040;73.076;2023-07-22T04:26:47;8.00;7.00;5.00
80555;PMS5003;69889;55.040;73.076;2023-07-22T04:29:14;9.00;8.00;6.00
80555;PMS5003;69889;55.040;73.076;2023-07-22T04:31:41;9.00;8.00;6.00
80555;PMS5003;69889;55.040;73.076;2023-07-22T04:34:07;8.00;7.75;5.50
80555;PMS5003;69889;55.040;73.076;2023-07-22T04:36:34;10.00;8.25;6.00
80555;PMS5003;69889;55.040;73.076;2023-07-22T04:39:00;8.00;7.75;5.00
80555;PMS5003;69889;55.040;73.076;2023-07-22T04:41:27;10.00;9.00;6.00
80555;PMS5003;69889;55.040;73.076;2023-07-22T04:43:55;8.00;8.00;6.00
80555;PMS5003;69889;55.040;73.076;2023-07-22T04:46:22;8.00;8.00;6.00
80555;PMS5003;69889;55.040;73.076;2023-07-22T04:48:49;9.00;8.00;6.00
80555;PMS5003;69889;55.040;73.076;2023-07-22T04:51:16;7.75;7.00;5.00
80555;PMS5003;69889;55.040;73.076;2023-07-22T04:53:42;9.50;9.00;6.00
80555;PMS5003;69889;55.040;73.076;2023-07-22T04:56:09;9.00;8.00;6.00
80555;PMS5003;69889;55.040;73.076;2023-07-22T04:58:35;9.25;9.00;6.00
80555;PMS5003;69889;55.040;73.076;2023-07-22T05:01:02;10.00;9.00;6.00
80555;PMS5003;69889;55.040;73.076;2023-07-22T05:03:28;9.75;9.00;7.00
80555;PMS5003;69889;55.040;73.076;2023-07-22T05:05:55;7.00;7.00;5.00
80555;PMS5003;69889;55.040;73.076;2023-07-22T05:08:23;9.00;8.00;5.00
80555;PMS5003;69889;55.040;73.076;2023-07-22T05:10:50;8.00;8.00;6.25
80555;PMS5003;69889;55.040;73.076;2023-07-22T05:13:16;8.00;8.00;5.00
80555;PMS5003;69889;55.040;73.076;2023-07-22T05:15:43;9.00;8.00;5.00
80555;PMS5003;69889;55.040;73.076;2023-07-22T05:18:10;10.00;9.00;6.00
80555;PMS5003;69889;55.040;73.076;2023-07-22T05:20:37;7.00;7.00;5.00
80555;PMS5003;69889;55.040;73.076;2023-07-22T05:23:04;8.00;8.00;6.50
80555;PMS5003;69889;55.040;73.076;2023-07-22T05:25:30;9.00;8.25;6.00
80555;PMS5003;69889;55.040;73.076;2023-07-22T05:27:57;8.00;8.00;6.00
80555;PMS5003;69889;55.040;73.076;2023-07-22T05:30:23;8.25;8.25;7.00
80555;PMS5003;69889;55.040;73.076;2023-07-22T05:32:53;8.00;8.00;6.00
80555;PMS5003;69889;55.040;73.076;2023-07-22T05:35:19;9.00;8.00;7.00
80555;PMS5003;69889;55.040;73.076;2023-07-22T05:37:46;9.00;8.00;6.00
80555;PMS5003;69889;55.040;73.076;2023-07-22T05:40:13;8.00;8.00;6.00
80555;PMS5003;69889;55.040;73.076;2023-07-22T05:42:40;9.00;8.00;6.00
80555;PMS5003;69889;55.040;73.076;2023-07-22T05:45:07;8.25;8.00;6.00
80555;PMS5003;69889;55.040;73.076;2023-07-22T05:47:34;10.00;9.00;6.00
80555;PMS5003;69889;55.040;73.076;2023-07-22T05:50:00;8.75;8.25;7.00
80555;PMS5003;69889;55.040;73.076;2023-07-22T05:52:27;7.50;7.50;5.25
80555;PMS5003;69889;55.040;73.076;2023-07-22T05:54:54;9.00;8.00;6.00
80555;PMS5003;69889;55.040;73.076;2023-07-22T05:57:20;10.00;9.75;6.75
80555;PMS5003;69889;55.040;73.076;2023-07-22T05:59:47;9.00;8.00;6.00
80555;PMS5003;69889;55.040;73.076;2023-07-22T06:02:13;9.00;8.00;5.50
80555;PMS5003;69889;55.040;73.076;2023-07-22T06:04:40;9.00;8.00;6.00
80555;PMS5003;69889;55.040;73.076;2023-07-22T06:07:07;10.00;10.00;7.00
80555;PMS5003;69889;55.040;73.076;2023-07-22T06:09:33;9.50;9.00;6.00
80555;PMS5003;69889;55.040;73.076;2023-07-22T06:12:01;8.25;8.00;6.00
80555;PMS5003;69889;55.040;73.076;2023-07-22T06:14:28;10.00;9.00;7.00
80555;PMS5003;69889;55.040;73.076;2023-07-22T06:16:54;9.00;8.00;6.00
80555;PMS5003;69889;55.040;73.076;2023-07-22T06:19:21;11.00;9.00;7.00
80555;PMS5003;69889;55.040;73.076;2023-07-22T06:21:47;9.00;9.00;6.00
80555;PMS5003;69889;55.040;73.076;2023-07-22T06:24:14;8.00;7.00;5.75
80555;PMS5003;69889;55.040;73.076;2023-07-22T06:26:40;9.50;8.50;6.00
80555;PMS5003;69889;55.040;73.076;2023-07-22T06:29:07;9.00;8.00;6.00
80555;PMS5003;69889;55.040;73.076;2023-07-22T06:31:33;9.00;9.00;7.00
80555;PMS5003;69889;55.040;73.076;2023-07-22T06:34:00;7.25;7.00;5.00
80555;PMS5003;69889;55.040;73.076;2023-07-22T06:36:27;8.00;8.00;6.00
80555;PMS5003;69889;55.040;73.076;2023-07-22T06:38:53;9.25;8.75;6.00
80555;PMS5003;69889;55.040;73.076;2023-07-22T06:41:20;8.00;8.00;5.00
80555;PMS5003;69889;55.040;73.076;2023-07-22T06:43:49;7.50;7.00;5.50
80555;PMS5003;69889;55.040;73.076;2023-07-22T06:46:16;8.00;7.00;6.00
80555;PMS5003;69889;55.040;73.076;2023-07-22T06:48:43;8.25;8.00;6.00
80555;PMS5003;69889;55.040;73.076;2023-07-22T06:51:09;9.00;8.00;5.00
80555;PMS5003;69889;55.040;73.076;2023-07-22T06:53:36;8.00;6.75;5.00
80555;PMS5003;69889;55.040;73.076;2023-07-22T06:56:03;8.75;8.25;6.00
80555;PMS5003;69889;55.040;73.076;2023-07-22T06:58:29;7.00;7.00;5.25
80555;PMS5003;69889;55.040;73.076;2023-07-22T07:00:56;8.75;8.00;6.25
80555;PMS5003;69889;55.040;73.076;2023-07-22T07:03:23;7.25;7.00;6.00
80555;PMS5003;69889;55.040;73.076;2023-07-22T07:05:53;9.00;8.00;6.00
80555;PMS5003;69889;55.040;73.076;2023-07-22T07:08:20;7.75;6.75;5.00
80555;PMS5003;69889;55.040;73.076;2023-07-22T07:10:47;6.75;6.50;5.00
80555;PMS5003;69889;55.040;73.076;2023-07-22T07:13:13;8.00;7.75;7.00
80555;PMS5003;69889;55.040;73.076;2023-07-22T07:15:40;9.25;9.00;6.25
80555;PMS5003;69889;55.040;73.076;2023-07-22T07:18:07;7.50;7.00;6.00
80555;PMS5003;69889;55.040;73.076;2023-07-22T07:20:33;7.00;7.00;6.00
80555;PMS5003;69889;55.040;73.076;2023-07-22T07:23:00;7.00;6.00;5.00
80555;PMS5003;69889;55.040;73.076;2023-07-22T07:25:26;9.25;8.00;5.00
80555;PMS5003;69889;55.040;73.076;2023-07-22T07:27:53;9.00;8.00;6.00
80555;PMS5003;69889;55.040;73.076;2023-07-22T07:30:20;7.00;7.00;5.00
80555;PMS5003;69889;55.040;73.076;2023-07-22T07:32:51;6.75;6.00;5.00
80555;PMS5003;69889;55.040;73.076;2023-07-22T07:35:18;7.00;7.00;5.00
80555;PMS5003;69889;55.040;73.076;2023-07-22T07:37:47;7.00;7.00;6.00
80555;PMS5003;69889;55.040;73.076;2023-07-22T07:40:15;7.00;7.00;5.00
80555;PMS5003;69889;55.040;73.076;2023-07-22T07:42:42;6.00;6.00;4.00
80555;PMS5003;69889;55.040;73.076;2023-07-22T07:45:15;6.00;6.00;4.00
80555;PMS5003;69889;55.040;73.076;2023-07-22T07:48:11;7.00;6.75;5.00
80555;PMS5003;69889;55.040;73.076;2023-07-22T07:50:40;6.00;6.00;4.50
80555;PMS5003;69889;55.040;73.076;2023-07-22T07:53:06;5.25;5.00;4.00
80555;PMS5003;69889;55.040;73.076;2023-07-22T07:55:33;5.00;5.00;4.00
80555;PMS5003;69889;55.040;73.076;2023-07-22T07:58:00;5.00;4.00;3.00
80555;PMS5003;69889;55.040;73.076;2023-07-22T08:00:27;5.00;5.00;4.00
80555;PMS5003;69889;55.040;73.076;2023-07-22T08:02:53;5.00;5.00;4.00
80555;PMS5003;69889;55.040;73.076;2023-07-22T08:05:20;4.75;4.50;3.00
80555;PMS5003;69889;55.040;73.076;2023-07-22T08:07:47;4.00;4.00;3.00
80555;PMS5003;69889;55.040;73.076;2023-07-22T08:10:14;4.00;4.00;3.00
80555;PMS5003;69889;55.040;73.076;2023-07-22T08:12:42;4.00;4.00;3.50
80555;PMS5003;69889;55.040;73.076;2023-07-22T08:15:08;5.00;4.75;3.00
80555;PMS5003;69889;55.040;73.076;2023-07-22T08:17:35;4.00;4.00;3.00
80555;PMS5003;69889;55.040;73.076;2023-07-22T08:20:02;5.00;4.00;4.00
80555;PMS5003;69889;55.040;73.076;2023-07-22T08:22:31;5.00;5.00;3.00
80555;PMS5003;69889;55.040;73.076;2023-07-22T08:24:58;4.00;4.00;3.00
80555;PMS5003;69889;55.040;73.076;2023-07-22T08:27:25;3.75;3.25;3.00
80555;PMS5003;69889;55.040;73.076;2023-07-22T08:29:52;3.00;3.00;2.00
80555;PMS5003;69889;55.040;73.076;2023-07-22T08:32:19;4.00;4.00;3.00
80555;PMS5003;69889;55.040;73.076;2023-07-22T08:34:45;4.00;4.00;3.00
80555;PMS5003;69889;55.040;73.076;2023-07-22T08:37:12;5.00;4.00;3.00
80555;PMS5003;69889;55.040;73.076;2023-07-22T08:39:40;4.00;4.00;3.00
80555;PMS5003;69889;55.040;73.076;2023-07-22T08:42:06;4.50;4.00;3.00
80555;PMS5003;69889;55.040;73.076;2023-07-22T08:44:34;3.25;3.25;3.00
80555;PMS5003;69889;55.040;73.076;2023-07-22T08:47:04;5.00;5.00;3.00
80555;PMS5003;69889;55.040;73.076;2023-07-22T08:49:34;4.00;4.00;3.00
80555;PMS5003;69889;55.040;73.076;2023-07-22T08:52:01;5.00;4.75;3.00
80555;PMS5003;69889;55.040;73.076;2023-07-22T08:54:28;4.00;3.75;3.00
80555;PMS5003;69889;55.040;73.076;2023-07-22T08:56:55;5.25;5.00;4.00
80555;PMS5003;69889;55.040;73.076;2023-07-22T08:59:24;5.00;5.00;4.00
80555;PMS5003;69889;55.040;73.076;2023-07-22T09:01:51;4.00;3.75;3.00
80555;PMS5003;69889;55.040;73.076;2023-07-22T09:04:22;4.00;4.00;3.00
80555;PMS5003;69889;55.040;73.076;2023-07-22T09:06:49;5.00;5.00;3.00
80555;PMS5003;69889;55.040;73.076;2023-07-22T09:09:16;3.00;3.00;2.00
80555;PMS5003;69889;55.040;73.076;2023-07-22T09:11:43;3.75;3.00;3.00
80555;PMS5003;69889;55.040;73.076;2023-07-22T09:14:12;4.00;4.00;3.00
80555;PMS5003;69889;55.040;73.076;2023-07-22T09:16:39;4.00;4.00;3.00
80555;PMS5003;69889;55.040;73.076;2023-07-22T09:19:06;3.50;3.25;2.50
80555;PMS5003;69889;55.040;73.076;2023-07-22T09:21:33;5.00;5.00;3.00
80555;PMS5003;69889;55.040;73.076;2023-07-22T09:24:19;5.00;4.25;3.00
80555;PMS5003;69889;55.040;73.076;2023-07-22T09:26:45;5.00;5.00;4.00
80555;PMS5003;69889;55.040;73.076;2023-07-22T09:29:12;5.00;4.00;3.00
80555;PMS5003;69889;55.040;73.076;2023-07-22T09:31:48;4.00;4.00;3.00
80555;PMS5003;69889;55.040;73.076;2023-07-22T09:34:15;5.00;5.00;4.00
80555;PMS5003;69889;55.040;73.076;2023-07-22T09:36:52;6.00;5.00;3.50
80555;PMS5003;69889;55.040;73.076;2023-07-22T09:39:18;4.00;4.00;3.00
80555;PMS5003;69889;55.040;73.076;2023-07-22T09:41:45;4.00;4.00;3.00
80555;PMS5003;69889;55.040;73.076;2023-07-22T09:44:12;4.00;4.00;3.00
80555;PMS5003;69889;55.040;73.076;2023-07-22T09:46:38;4.25;4.00;4.00
80555;PMS5003;69889;55.040;73.076;2023-07-22T09:49:06;6.00;5.50;4.00
80555;PMS5003;69889;55.040;73.076;2023-07-22T09:51:40;5.00;5.00;4.00
80555;PMS5003;69889;55.040;73.076;2023-07-22T09:54:07;5.00;5.00;4.00
80555;PMS5003;69889;55.040;73.076;2023-07-22T09:56:44;4.00;4.00;3.25
80555;PMS5003;69889;55.040;73.076;2023-07-22T09:59:10;5.00;5.00;4.00
80555;PMS5003;69889;55.040;73.076;2023-07-22T10:01:38;5.00;5.00;4.00
80555;PMS5003;69889;55.040;73.076;2023-07-22T10:04:06;5.00;4.00;3.00
80555;PMS5003;69889;55.040;73.076;2023-07-22T10:06:44;5.25;5.00;4.00
80555;PMS5003;69889;55.040;73.076;2023-07-22T10:09:11;5.00;5.00;3.25
80555;PMS5003;69889;55.040;73.076;2023-07-22T10:11:41;4.00;4.00;3.00
80555;PMS5003;69889;55.040;73.076;2023-07-22T10:14:08;5.00;5.00;3.00
80555;PMS5003;69889;55.040;73.076;2023-07-22T10:16:38;5.00;5.00;3.00
80555;PMS5003;69889;55.040;73.076;2023-07-22T10:19:05;5.00;5.00;4.00
80555;PMS5003;69889;55.040;73.076;2023-07-22T10:21:34;4.50;4.25;3.50
80555;PMS5003;69889;55.040;73.076;2023-07-22T10:24:41;5.00;5.00;4.00
80555;PMS5003;69889;55.040;73.076;2023-07-22T10:27:08;4.00;4.00;3.00
80555;PMS5003;69889;55.040;73.076;2023-07-22T10:29:35;6.00;6.00;4.00
80555;PMS5003;69889;55.040;73.076;2023-07-22T10:32:02;5.00;5.00;4.00
80555;PMS5003;69889;55.040;73.076;2023-07-22T10:34:30;4.00;4.00;3.00
80555;PMS5003;69889;55.040;73.076;2023-07-22T10:36:57;6.00;5.00;4.00
80555;PMS5003;69889;55.040;73.076;2023-07-22T10:39:27;4.00;4.00;3.75
80555;PMS5003;69889;55.040;73.076;2023-07-22T10:42:03;5.00;5.00;3.00
80555;PMS5003;69889;55.040;73.076;2023-07-22T10:44:37;5.00;4.75;3.00
80555;PMS5003;69889;55.040;73.076;2023-07-22T10:47:05;6.00;6.00;4.50
80555;PMS5003;69889;55.040;73.076;2023-07-22T10:52:43;5.00;5.00;4.00
80555;PMS5003;69889;55.040;73.076;2023-07-22T10:55:14;5.00;4.50;3.00
80555;PMS5003;69889;55.040;73.076;2023-07-22T10:57:50;5.00;5.00;3.00
80555;PMS5003;69889;55.040;73.076;2023-07-22T11:00:18;6.00;5.00;3.00
80555;PMS5003;69889;55.040;73.076;2023-07-22T11:02:47;4.00;4.00;3.00
80555;PMS5003;69889;55.040;73.076;2023-07-22T11:05:15;5.00;4.00;4.00
80555;PMS5003;69889;55.040;73.076;2023-07-22T11:07:43;4.00;4.00;3.00
80555;PMS5003;69889;55.040;73.076;2023-07-22T11:10:14;3.75;3.75;3.00
80555;PMS5003;69889;55.040;73.076;2023-07-22T11:13:03;4.00;4.00;3.00
80555;PMS5003;69889;55.040;73.076;2023-07-22T11:15:30;5.00;5.00;3.00
80555;PMS5003;69889;55.040;73.076;2023-07-22T11:17:57;5.00;5.00;4.00
80555;PMS5003;69889;55.040;73.076;2023-07-22T11:20:23;4.00;4.00;3.00
80555;PMS5003;69889;55.040;73.076;2023-07-22T11:22:50;4.00;4.00;3.00
80555;PMS5003;69889;55.040;73.076;2023-07-22T11:25:18;5.00;5.00;3.00
80555;PMS5003;69889;55.040;73.076;2023-07-22T11:27:45;5.00;5.00;4.00
80555;PMS5003;69889;55.040;73.076;2023-07-22T11:30:14;4.00;4.00;3.00
80555;PMS5003;69889;55.040;73.076;2023-07-22T11:32:42;4.00;3.75;3.00
80555;PMS5003;69889;55.040;73.076;2023-07-22T11:35:08;5.00;5.00;4.00
80555;PMS5003;69889;55.040;73.076;2023-07-22T11:37:35;3.00;3.00;3.00
80555;PMS5003;69889;55.040;73.076;2023-07-22T11:40:01;5.00;5.00;3.00
80555;PMS5003;69889;55.040;73.076;2023-07-22T11:42:28;4.00;4.00;3.00
80555;PMS5003;69889;55.040;73.076;2023-07-22T11:44:56;4.00;4.00;3.00
80555;PMS5003;69889;55.040;73.076;2023-07-22T11:47:28;5.00;5.00;3.00
80555;PMS5003;69889;55.040;73.076;2023-07-22T11:49:55;4.50;4.00;3.00
80555;PMS5003;69889;55.040;73.076;2023-07-22T11:52:21;5.00;4.75;3.00
80555;PMS5003;69889;55.040;73.076;2023-07-22T11:54:48;4.50;4.25;3.00
80555;PMS5003;69889;55.040;73.076;2023-07-22T11:59:45;5.00;5.00;3.25
80555;PMS5003;69889;55.040;73.076;2023-07-22T12:02:12;4.00;4.00;3.00
80555;PMS5003;69889;55.040;73.076;2023-07-22T12:04:39;4.00;4.00;3.00
80555;PMS5003;69889;55.040;73.076;2023-07-22T12:07:20;8.00;7.75;5.00
80555;PMS5003;69889;55.040;73.076;2023-07-22T12:09:48;5.00;5.00;4.00
80555;PMS5003;69889;55.040;73.076;2023-07-22T12:12:15;5.00;5.00;3.00
80555;PMS5003;69889;55.040;73.076;2023-07-22T12:14:41;5.75;5.00;4.00
80555;PMS5003;69889;55.040;73.076;2023-07-22T12:17:08;6.00;5.50;4.00
80555;PMS5003;69889;55.040;73.076;2023-07-22T12:19:35;6.00;6.00;4.75
80555;PMS5003;69889;55.040;73.076;2023-07-22T12:22:02;5.00;5.00;4.00
80555;PMS5003;69889;55.040;73.076;2023-07-22T12:24:29;5.00;5.00;4.00
80555;PMS5003;69889;55.040;73.076;2023-07-22T12:26:56;4.00;4.00;3.00
80555;PMS5003;69889;55.040;73.076;2023-07-22T12:29:23;5.00;5.00;4.00
80555;PMS5003;69889;55.040;73.076;2023-07-22T12:31:50;4.25;4.00;3.00
80555;PMS5003;69889;55.040;73.076;2023-07-22T12:34:17;4.25;4.00;3.00
80555;PMS5003;69889;55.040;73.076;2023-07-22T12:36:44;5.00;4.75;3.75
80555;PMS5003;69889;55.040;73.076;2023-07-22T12:39:10;5.00;4.50;3.00
80555;PMS5003;69889;55.040;73.076;2023-07-22T12:41:37;5.00;4.00;3.00
80555;PMS5003;69889;55.040;73.076;2023-07-22T12:44:04;5.00;4.00;3.00
80555;PMS5003;69889;55.040;73.076;2023-07-22T12:46:31;3.00;3.00;3.00
80555;PMS5003;69889;55.040;73.076;2023-07-22T12:48:57;3.75;3.50;3.00
80555;PMS5003;69889;55.040;73.076;2023-07-22T12:51:24;5.00;4.00;3.00
80555;PMS5003;69889;55.040;73.076;2023-07-22T12:53:50;6.00;5.25;4.00
80555;PMS5003;69889;55.040;73.076;2023-07-22T12:56:17;5.00;5.00;4.00
80555;PMS5003;69889;55.040;73.076;2023-07-22T12:58:44;5.00;5.00;4.00
80555;PMS5003;69889;55.040;73.076;2023-07-22T13:01:10;4.00;4.00;3.00
80555;PMS5003;69889;55.040;73.076;2023-07-22T13:03:37;5.00;5.00;4.00
80555;PMS5003;69889;55.040;73.076;2023-07-22T13:06:03;4.00;4.00;3.00
80555;PMS5003;69889;55.040;73.076;2023-07-22T13:08:31;5.00;5.00;3.00
80555;PMS5003;69889;55.040;73.076;2023-07-22T13:10:57;5.00;4.25;3.00
80555;PMS5003;69889;55.040;73.076;2023-07-22T13:13:25;5.75;5.00;4.00
80555;PMS5003;69889;55.040;73.076;2023-07-22T13:15:51;5.00;5.00;4.00
80555;PMS5003;69889;55.040;73.076;2023-07-22T13:18:18;6.00;6.00;4.00
80555;PMS5003;69889;55.040;73.076;2023-07-22T13:20:45;5.00;5.00;4.00
80555;PMS5003;69889;55.040;73.076;2023-07-22T13:23:11;5.00;5.00;4.00
80555;PMS5003;69889;55.040;73.076;2023-07-22T13:25:38;7.00;6.50;5.00
80555;PMS5003;69889;55.040;73.076;2023-07-22T13:28:05;10.00;10.00;6.00
80555;PMS5003;69889;55.040;73.076;2023-07-22T13:30:31;5.00;5.00;4.00
80555;PMS5003;69889;55.040;73.076;2023-07-22T13:32:58;5.25;5.00;4.00
80555;PMS5003;69889;55.040;73.076;2023-07-22T13:35:25;6.00;5.75;4.00
80555;PMS5003;69889;55.040;73.076;2023-07-22T13:37:52;5.00;5.00;4.00
80555;PMS5003;69889;55.040;73.076;2023-07-22T13:40:19;5.75;5.00;4.00
80555;PMS5003;69889;55.040;73.076;2023-07-22T13:42:47;6.00;5.00;4.00
80555;PMS5003;69889;55.040;73.076;2023-07-22T13:45:13;9.50;9.00;7.00
80555;PMS5003;69889;55.040;73.076;2023-07-22T13:47:41;13.00;12.00;9.00
80555;PMS5003;69889;55.040;73.076;2023-07-22T13:50:09;9.50;9.00;6.00
80555;PMS5003;69889;55.040;73.076;2023-07-22T13:52:36;9.00;9.00;6.00
80555;PMS5003;69889;55.040;73.076;2023-07-22T13:55:02;9.75;8.75;6.00
80555;PMS5003;69889;55.040;73.076;2023-07-22T13:57:29;7.50;7.00;5.00
80555;PMS5003;69889;55.040;73.076;2023-07-22T13:59:57;8.00;7.00;5.00
80555;PMS5003;69889;55.040;73.076;2023-07-22T14:02:23;6.00;5.75;4.00
80555;PMS5003;69889;55.040;73.076;2023-07-22T14:04:51;7.00;7.00;5.00
80555;PMS5003;69889;55.040;73.076;2023-07-22T14:07:17;10.00;9.00;6.00
80555;PMS5003;69889;55.040;73.076;2023-07-22T14:09:44;8.25;8.50;6.00
80555;PMS5003;69889;55.040;73.076;2023-07-22T14:12:11;11.00;10.00;7.00
80555;PMS5003;69889;55.040;73.076;2023-07-22T14:14:38;12.00;11.00;8.00